createdAt,value
2019-04-07T00:01:19.391Z,0.70
2019-04-07T00:04:00.045Z,0.40
2019-04-07T00:06:40.913Z,0.70
2019-04-07T00:09:22.267Z,0.37
2019-04-07T00:12:03.553Z,0.87
2019-04-07T00:14:44.863Z,0.67
2019-04-07T00:17:13.939Z,0.43
2019-04-07T00:20:02.460Z,0.23
2019-04-07T00:22:45.338Z,0.17
2019-04-07T00:25:26.437Z,0.40
2019-04-07T00:28:07.201Z,0.40
2019-04-07T00:30:47.963Z,0.10
2019-04-07T00:33:28.874Z,0.40
2019-04-07T00:36:09.630Z,0.37
2019-04-07T00:38:50.481Z,0.40
2019-04-07T00:41:31.316Z,0.20
2019-04-07T00:44:12.517Z,0.73
2019-04-07T00:46:53.112Z,0.20
2019-04-07T00:49:33.891Z,0.00
2019-04-07T00:52:15.867Z,0.30
2019-04-07T00:54:56.853Z,0.30
2019-04-07T00:57:37.498Z,0.77
2019-04-07T01:00:18.307Z,0.20
2019-04-07T01:02:59.441Z,0.20
2019-04-07T01:05:41.794Z,0.20
2019-04-07T01:08:23.025Z,0.07
2019-04-07T01:11:04.604Z,0.20
2019-04-07T01:13:45.429Z,0.40
2019-04-07T01:16:26.261Z,0.23
2019-04-07T01:19:07.508Z,0.60
2019-04-07T01:21:48.501Z,0.27
2019-04-07T01:24:29.834Z,0.27
2019-04-07T01:27:11.523Z,0.23
2019-04-07T01:29:52.813Z,0.40
2019-04-07T01:32:33.598Z,0.20
2019-04-07T01:35:14.627Z,0.13
2019-04-07T01:37:56.984Z,0.57
2019-04-07T01:40:39.010Z,0.00
2019-04-07T01:43:39.375Z,0.67
2019-04-07T01:46:39.691Z,0.00
2019-04-07T01:49:30.243Z,0.30
2019-04-07T01:52:27.360Z,0.43
2019-04-07T01:55:26.973Z,0.27
2019-04-07T01:58:27.325Z,0.00
2019-04-07T02:01:27.427Z,0.10
2019-04-07T02:04:27.109Z,0.07
2019-04-07T02:07:27.374Z,0.00
2019-04-07T02:10:27.443Z,0.00
2019-04-07T02:13:28.729Z,0.23
2019-04-07T02:16:29.016Z,0.10
2019-04-07T02:19:19.021Z,0.00
2019-04-07T02:22:19.096Z,0.47
2019-04-07T02:25:10.750Z,0.00
2019-04-07T02:28:12.383Z,0.23
2019-04-07T02:31:13.556Z,0.50
2019-04-07T02:34:13.506Z,0.00
2019-04-07T02:37:02.996Z,0.20
2019-04-07T02:39:50.893Z,0.27
2019-04-07T02:42:50.468Z,0.10
2019-04-07T02:45:52.365Z,0.37
2019-04-07T02:48:54.763Z,0.20
2019-04-07T02:51:54.307Z,0.00
2019-04-07T02:54:53.733Z,0.10
2019-04-07T02:57:47.560Z,0.10
2019-04-07T03:00:36.584Z,0.10
2019-04-07T03:03:42.775Z,0.23
2019-04-07T03:06:49.753Z,0.00
2019-04-07T03:09:46.143Z,0.17
2019-04-07T03:12:46.600Z,0.97
2019-04-07T03:15:37.361Z,0.00
2019-04-07T03:18:27.008Z,0.17
2019-04-07T03:21:27.945Z,0.10
2019-04-07T03:24:28.676Z,0.00
2019-04-07T03:27:16.371Z,0.10
2019-04-07T03:29:55.344Z,0.30
2019-04-07T03:32:55.316Z,0.03
2019-04-07T03:35:50.215Z,0.03
2019-04-07T03:38:44.476Z,0.60
2019-04-07T03:41:44.331Z,0.00
2019-04-07T03:44:44.777Z,0.07
2019-04-07T03:47:40.034Z,0.20
2019-04-07T03:50:44.100Z,0.40
2019-04-07T03:53:48.813Z,0.03
2019-04-07T03:56:49.790Z,0.23
2019-04-07T03:59:50.073Z,0.17
2019-04-07T04:02:50.485Z,0.00
2019-04-07T04:05:39.276Z,0.17
2019-04-07T04:08:47.554Z,0.10
2019-04-07T04:11:55.671Z,0.30
2019-04-07T04:14:50.661Z,0.20
2019-04-07T04:17:32.710Z,0.00
2019-04-07T04:20:14.694Z,0.60
2019-04-07T04:22:55.976Z,0.37
2019-04-07T04:25:37.501Z,0.30
2019-04-07T04:28:19.366Z,0.20
2019-04-07T04:31:01.538Z,0.23
2019-04-07T04:33:42.524Z,0.30
2019-04-07T04:36:24.043Z,0.00
2019-04-07T04:39:06.438Z,0.03
2019-04-07T04:41:47.073Z,0.00
2019-04-07T04:44:28.417Z,0.37
2019-04-07T04:47:10.223Z,0.17
2019-04-07T04:49:52.666Z,0.30
2019-04-07T04:52:33.746Z,0.40
2019-04-07T04:55:16.559Z,0.17
2019-04-07T04:57:57.887Z,0.00
2019-04-07T05:00:38.844Z,0.20
2019-04-07T05:03:19.521Z,0.20
2019-04-07T05:06:00.390Z,0.00
2019-04-07T05:08:41.165Z,0.53
2019-04-07T05:11:22.275Z,0.60
2019-04-07T05:14:03.792Z,0.23
2019-04-07T05:16:45.017Z,0.90
2019-04-07T05:19:26.233Z,0.37
2019-04-07T05:22:07.134Z,0.13
2019-04-07T05:24:48.809Z,0.40
2019-04-07T05:27:30.793Z,0.10
2019-04-07T05:30:12.357Z,0.10
2019-04-07T05:32:54.489Z,0.30
2019-04-07T05:35:36.250Z,0.33
2019-04-07T05:38:17.502Z,0.00
2019-04-07T05:40:58.645Z,0.00
2019-04-07T05:43:39.085Z,0.43
2019-04-07T05:46:20.178Z,0.60
2019-04-07T05:49:02.111Z,0.23
2019-04-07T05:51:43.388Z,0.60
2019-04-07T05:54:24.937Z,0.40
2019-04-07T05:57:05.991Z,0.50
2019-04-07T05:59:47.175Z,0.20
2019-04-07T06:02:31.274Z,0.23
2019-04-07T06:05:09.997Z,0.37
2019-04-07T06:07:51.486Z,0.97
2019-04-07T06:10:23.868Z,0.53
2019-04-07T06:13:13.153Z,0.00
2019-04-07T06:15:53.985Z,0.37
2019-04-07T06:18:35.809Z,0.43
2019-04-07T06:21:17.251Z,0.30
2019-04-07T06:23:59.825Z,0.43
2019-04-07T06:26:42.128Z,0.97
2019-04-07T06:29:26.300Z,0.20
2019-04-07T06:32:05.582Z,0.40
2019-04-07T06:34:49.015Z,0.93
2019-04-07T06:37:29.539Z,0.57
2019-04-07T06:40:11.120Z,0.77
2019-04-07T06:42:52.359Z,0.50
2019-04-07T06:45:39.950Z,0.43
2019-04-07T06:48:21.382Z,0.10
2019-04-07T06:51:12.354Z,0.40
2019-04-07T06:54:13.395Z,0.30
2019-04-07T06:57:13.884Z,0.40
2019-04-07T07:00:13.987Z,0.53
2019-04-07T07:03:05.108Z,0.50
2019-04-07T07:06:00.941Z,1.17
2019-04-07T07:09:00.812Z,0.60
2019-04-07T07:12:01.614Z,0.70
2019-04-07T07:15:03.330Z,1.00
2019-04-07T07:17:54.905Z,0.50
2019-04-07T07:21:01.691Z,1.37
2019-04-07T07:23:47.139Z,0.77
2019-04-07T07:26:14.020Z,0.73
2019-04-07T07:29:03.073Z,1.00
2019-04-07T07:31:53.230Z,0.40
2019-04-07T07:34:34.861Z,0.90
2019-04-07T07:37:16.188Z,0.73
2019-04-07T07:39:57.175Z,0.70
2019-04-07T07:42:37.778Z,0.53
2019-04-07T07:45:19.021Z,0.90
2019-04-07T07:47:59.621Z,1.13
2019-04-07T07:50:40.758Z,0.60
2019-04-07T07:53:26.059Z,1.03
2019-04-07T07:56:08.405Z,1.23
2019-04-07T07:58:47.313Z,0.83
2019-04-07T08:01:28.114Z,0.70
2019-04-07T08:04:08.803Z,1.03
2019-04-07T08:06:50.181Z,0.70
2019-04-07T08:09:30.804Z,0.63
2019-04-07T08:12:11.677Z,0.57
2019-04-07T08:14:56.349Z,1.03
2019-04-07T08:17:36.564Z,1.60
2019-04-07T08:20:17.503Z,1.37
2019-04-07T08:22:58.138Z,0.57
2019-04-07T08:25:39.022Z,1.70
2019-04-07T08:28:20.865Z,0.73
2019-04-07T08:31:02.472Z,1.03
2019-04-07T08:33:43.275Z,1.07
2019-04-07T08:36:23.929Z,1.60
2019-04-07T08:39:07.267Z,0.90
2019-04-07T08:41:48.302Z,0.90
2019-04-07T08:44:30.497Z,1.30
2019-04-07T08:47:15.748Z,1.10
2019-04-07T08:49:56.882Z,0.93
2019-04-07T08:52:40.785Z,0.83
2019-04-07T08:55:21.592Z,1.03
2019-04-07T08:58:04.634Z,1.00
2019-04-07T09:00:50.922Z,1.10
2019-04-07T09:03:31.526Z,1.17
2019-04-07T09:06:13.005Z,0.90
2019-04-07T09:08:54.951Z,1.33
2019-04-07T09:11:39.108Z,1.20
2019-04-07T09:14:19.241Z,1.47
2019-04-07T09:20:27.620Z,0.90
2019-04-07T09:23:08.176Z,1.00
2019-04-07T09:29:19.874Z,0.50
2019-04-07T09:32:23.775Z,1.27
2019-04-07T09:35:26.472Z,1.23
2019-04-07T09:38:09.849Z,1.03
2019-04-07T09:41:09.768Z,1.30
2019-04-07T09:44:12.630Z,1.17
2019-04-07T09:50:00.555Z,0.70
2019-04-07T09:53:03.769Z,0.67
2019-04-07T09:56:11.933Z,0.80
2019-04-07T09:59:08.934Z,0.70
2019-04-07T10:01:54.170Z,1.67
2019-04-07T10:04:56.464Z,1.63
2019-04-07T10:07:48.890Z,0.90
2019-04-07T10:13:57.797Z,0.97
2019-04-07T10:19:29.966Z,1.00
2019-04-07T10:22:19.848Z,1.43
2019-04-07T10:25:25.179Z,1.40
2019-04-07T10:30:52.961Z,1.17
2019-04-07T10:33:49.453Z,1.23
2019-04-07T10:36:37.475Z,0.93
2019-04-07T10:39:31.110Z,1.03
2019-04-07T10:42:15.213Z,1.10
2019-04-07T10:45:15.318Z,1.23
2019-04-07T10:48:01.312Z,1.00
2019-04-07T10:53:30.337Z,1.30
2019-04-07T10:59:26.755Z,0.87
2019-04-07T11:02:34.025Z,1.40
2019-04-07T11:05:37.302Z,1.30
2019-04-07T11:08:24.601Z,1.47
2019-04-07T11:11:31.466Z,1.00
2019-04-07T11:14:39.351Z,1.10
2019-04-07T11:17:34.093Z,1.10
2019-04-07T11:23:03.002Z,0.90
2019-04-07T11:28:52.476Z,1.07
2019-04-07T11:31:56.885Z,0.57
2019-04-07T11:34:58.517Z,1.00
2019-04-07T11:40:25.932Z,0.43
2019-04-07T11:46:12.069Z,0.93
2019-04-07T11:51:44.534Z,0.97
2019-04-07T11:57:27.118Z,0.70
2019-04-07T12:00:30.047Z,0.73
2019-04-07T12:03:35.599Z,0.97
2019-04-07T12:06:36.473Z,0.60
2019-04-07T12:09:37.036Z,0.97
2019-04-07T12:12:37.489Z,0.63
2019-04-07T12:15:29.143Z,1.03
2019-04-07T12:18:19.253Z,1.00
2019-04-07T12:21:27.839Z,1.03
2019-04-07T12:24:34.596Z,0.70
2019-04-07T12:27:31.482Z,0.87
2019-04-07T12:30:25.233Z,1.03
2019-04-07T12:33:26.708Z,0.70
2019-04-07T12:36:31.059Z,0.70
2019-04-07T12:42:38.510Z,0.93
2019-04-07T12:45:30.790Z,0.63
2019-04-07T12:48:32.024Z,1.10
2019-04-07T12:51:23.437Z,0.90
2019-04-07T12:54:27.744Z,0.90
2019-04-07T13:00:44.695Z,0.93
2019-04-07T13:03:26.693Z,0.97
2019-04-07T13:06:08.679Z,1.57
2019-04-07T13:11:36.288Z,1.53
2019-04-07T13:14:37.572Z,0.93
2019-04-07T13:17:21.690Z,1.10
2019-04-07T13:20:28.742Z,0.97
2019-04-07T13:25:56.755Z,1.40
2019-04-07T13:31:24.535Z,0.77
2019-04-07T13:37:20.015Z,1.33
2019-04-07T13:48:56.965Z,1.03
2019-04-07T13:51:47.180Z,0.90
2019-04-07T13:54:32.738Z,0.80
2019-04-07T13:57:12.625Z,1.10
2019-04-07T13:59:57.844Z,1.40
2019-04-07T14:05:29.909Z,0.60
2019-04-07T14:08:36.121Z,1.33
2019-04-07T14:11:36.082Z,1.13
2019-04-07T14:14:21.149Z,0.80
2019-04-07T14:19:52.871Z,1.07
2019-04-07T14:25:45.333Z,1.10
2019-04-07T14:31:39.087Z,0.90
2019-04-07T14:34:36.390Z,1.17
2019-04-07T14:37:22.950Z,0.90
2019-04-07T14:40:25.931Z,1.13
2019-04-07T14:43:09.300Z,1.63
2019-04-07T14:45:59.051Z,0.93
2019-04-07T14:48:44.772Z,1.53
2019-04-07T14:51:45.078Z,0.83
2019-04-07T14:54:48.545Z,0.90
2019-04-07T14:57:49.088Z,1.20
2019-04-07T15:03:42.871Z,1.20
2019-04-07T15:06:28.469Z,0.90
2019-04-07T15:12:15.955Z,1.33
2019-04-07T15:14:50.805Z,0.97
2019-04-07T15:17:32.794Z,1.37
2019-04-07T15:20:14.491Z,0.70
2019-04-07T15:22:58.427Z,0.80
2019-04-07T15:28:21.587Z,1.10
2019-04-07T15:30:51.771Z,1.97
2019-04-07T15:33:40.096Z,0.43
2019-04-07T15:36:28.352Z,1.00
2019-04-07T15:39:09.803Z,0.90
2019-04-07T15:41:51.005Z,0.73
2019-04-07T15:44:32.536Z,0.63
2019-04-07T15:47:13.729Z,0.40
2019-04-07T15:49:57.768Z,0.63
2019-04-07T15:52:37.625Z,0.93
2019-04-07T15:55:19.177Z,0.53
2019-04-07T15:58:00.606Z,0.67
2019-04-07T16:00:41.997Z,0.70
2019-04-07T16:03:23.130Z,0.17
2019-04-07T16:08:46.911Z,0.83
2019-04-07T16:11:29.661Z,0.63
2019-04-07T16:14:13.274Z,0.40
2019-04-07T16:16:54.051Z,0.53
2019-04-07T16:19:34.866Z,0.37
2019-04-07T16:22:15.257Z,0.77
2019-04-07T16:24:57.211Z,0.77
2019-04-07T16:27:39.686Z,0.53
2019-04-07T16:30:20.492Z,0.63
2019-04-07T16:33:04.046Z,0.50
2019-04-07T16:35:49.075Z,0.20
2019-04-07T16:38:28.295Z,0.40
2019-04-07T16:41:12.306Z,0.10
2019-04-07T16:43:52.894Z,0.17
2019-04-07T16:46:33.777Z,0.30
2019-04-07T16:49:16.914Z,0.30
2019-04-07T16:54:43.450Z,0.83
2019-04-07T16:57:28.189Z,0.43
2019-04-07T17:00:07.002Z,0.67
2019-04-07T17:02:47.795Z,0.53
2019-04-07T17:05:28.991Z,0.33
2019-04-07T17:08:09.757Z,0.37
2019-04-07T17:10:50.734Z,0.20
2019-04-07T17:13:38.595Z,0.23
2019-04-07T17:16:14.632Z,0.13
2019-04-07T17:18:56.547Z,0.40
2019-04-07T17:21:41.157Z,0.50
2019-04-07T17:24:24.926Z,0.70
2019-04-07T17:27:04.649Z,0.40
2019-04-07T17:29:45.969Z,0.10
2019-04-07T17:32:30.519Z,0.47
2019-04-07T17:35:12.474Z,0.63
2019-04-07T17:37:59.817Z,0.33
2019-04-07T17:44:04.537Z,0.53
2019-04-07T17:47:05.689Z,0.40
2019-04-07T17:50:08.706Z,0.70
2019-04-07T17:53:11.663Z,0.37
2019-04-07T17:56:10.791Z,0.30
2019-04-07T18:02:10.594Z,0.40
2019-04-07T18:05:01.900Z,0.43
2019-04-07T18:08:01.848Z,0.30
2019-04-07T18:11:08.693Z,0.30
2019-04-07T18:13:50.950Z,0.63
2019-04-07T18:16:51.678Z,0.40
2019-04-07T18:19:43.166Z,0.90
2019-04-07T18:22:34.737Z,0.30
2019-04-07T18:25:35.568Z,0.40
2019-04-07T18:28:35.853Z,0.40
2019-04-07T18:31:38.955Z,0.40
2019-04-07T18:34:39.766Z,0.33
2019-04-07T18:40:17.859Z,0.60
2019-04-07T18:43:08.241Z,0.23
2019-04-07T18:46:11.879Z,0.30
2019-04-07T18:49:14.666Z,0.83
2019-04-07T18:52:20.038Z,0.10
2019-04-07T18:55:18.148Z,0.27
2019-04-07T18:58:13.133Z,0.07
2019-04-07T19:04:17.299Z,0.20
2019-04-07T19:07:09.754Z,0.63
2019-04-07T19:10:19.232Z,0.60
2019-04-07T19:13:26.749Z,0.67
2019-04-07T19:16:26.521Z,0.13
2019-04-07T19:19:27.814Z,0.50
2019-04-07T19:22:34.551Z,0.63
2019-04-07T19:25:35.645Z,0.50
2019-04-07T19:28:41.180Z,0.67
2019-04-07T19:31:34.213Z,0.60
2019-04-07T19:34:35.558Z,0.27
2019-04-07T19:37:26.544Z,0.33
2019-04-07T19:40:28.571Z,0.50
2019-04-07T19:43:30.393Z,0.20
2019-04-07T19:46:31.260Z,0.77
2019-04-07T19:49:21.596Z,0.30
2019-04-07T19:52:19.196Z,0.30
2019-04-07T19:55:22.692Z,0.57
2019-04-07T19:58:23.134Z,0.63
2019-04-07T20:01:26.860Z,0.30
2019-04-07T20:04:24.851Z,0.40
2019-04-07T20:07:31.413Z,0.73
2019-04-07T20:10:31.685Z,0.30
2019-04-07T20:13:34.458Z,0.70
2019-04-07T20:16:26.164Z,0.20
2019-04-07T20:19:28.960Z,0.30
2019-04-07T20:25:13.223Z,0.27
2019-04-07T20:28:13.460Z,0.37
2019-04-07T20:31:13.253Z,0.20
2019-04-07T20:34:19.410Z,0.47
2019-04-07T20:37:12.939Z,0.37
2019-04-07T20:40:13.878Z,0.60
2019-04-07T20:43:14.314Z,0.10
2019-04-07T20:46:19.103Z,0.53
2019-04-07T20:49:06.516Z,0.30
2019-04-07T20:52:15.650Z,0.30
2019-04-07T20:55:19.099Z,0.10
2019-04-07T20:58:18.783Z,0.83
2019-04-07T21:01:21.220Z,0.30
2019-04-07T21:04:20.163Z,0.57
2019-04-07T21:07:20.662Z,0.20
2019-04-07T21:10:26.338Z,0.67
2019-04-07T21:13:26.685Z,0.47
2019-04-07T21:16:29.507Z,0.30
2019-04-07T21:19:27.953Z,0.47
2019-04-07T21:22:19.744Z,0.40
2019-04-07T21:25:16.747Z,0.20
2019-04-07T21:28:18.183Z,0.30
2019-04-07T21:31:20.086Z,0.67
2019-04-07T21:33:57.829Z,0.40
2019-04-07T21:37:07.970Z,0.30
2019-04-07T21:40:02.910Z,0.47
2019-04-07T21:43:00.767Z,0.37
2019-04-07T21:46:01.034Z,0.30
2019-04-07T21:49:01.781Z,0.30
2019-04-07T21:51:49.425Z,0.10
2019-04-07T21:54:55.781Z,0.10
2019-04-07T21:57:57.556Z,0.40
2019-04-07T22:00:57.201Z,0.50
2019-04-07T22:03:52.446Z,0.20
2019-04-07T22:06:39.979Z,0.23
2019-04-07T22:09:30.591Z,0.63
2019-04-07T22:12:11.373Z,0.93
2019-04-07T22:14:52.760Z,0.40
2019-04-07T22:17:36.790Z,0.20
2019-04-07T22:20:18.815Z,0.67
2019-04-07T22:23:01.401Z,0.47
2019-04-07T22:25:42.076Z,0.47
2019-04-07T22:28:27.822Z,0.27
2019-04-07T22:31:06.055Z,0.20
2019-04-07T22:33:46.647Z,0.30
2019-04-07T22:36:27.349Z,0.10
2019-04-07T22:39:08.169Z,0.67
2019-04-07T22:41:50.367Z,0.20
2019-04-07T22:44:31.437Z,0.10
2019-04-07T22:47:14.472Z,0.27
2019-04-07T22:49:54.745Z,0.37
2019-04-07T22:52:36.164Z,0.03
2019-04-07T22:55:17.684Z,0.73
2019-04-07T22:57:58.617Z,0.10
2019-04-07T23:00:40.330Z,0.40
2019-04-07T23:03:21.489Z,0.70
2019-04-07T23:06:03.070Z,1.33
2019-04-07T23:08:43.956Z,0.40
2019-04-07T23:11:25.775Z,0.10
2019-04-07T23:14:11.478Z,0.30
2019-04-07T23:16:52.373Z,0.47
2019-04-07T23:19:32.743Z,0.50
2019-04-07T23:22:13.897Z,0.23
2019-04-07T23:24:55.083Z,0.10
2019-04-07T23:27:36.405Z,0.27
2019-04-07T23:30:17.363Z,0.07
2019-04-07T23:32:57.943Z,0.10
2019-04-07T23:35:39.312Z,0.43
2019-04-07T23:38:20.525Z,0.43
2019-04-07T23:41:01.340Z,0.10
2019-04-07T23:43:42.246Z,0.37
2019-04-07T23:46:25.847Z,0.40
2019-04-07T23:49:05.798Z,0.53
2019-04-07T23:51:47.580Z,0.20
2019-04-07T23:54:28.965Z,0.43
2019-04-07T23:57:10.180Z,0.07
2019-04-07T23:59:51.423Z,0.80
